createdAt,value
2022-09-07T00:01:01.355Z,4.00
2022-09-07T00:03:28.259Z,4.75
2022-09-07T00:05:55.003Z,4.30
2022-09-07T00:08:24.375Z,4.20
2022-09-07T00:10:53.382Z,4.22
2022-09-07T00:13:20.345Z,4.32
2022-09-07T00:15:47.005Z,4.18
2022-09-07T00:18:13.585Z,4.40
2022-09-07T00:20:40.120Z,4.15
2022-09-07T00:23:06.900Z,4.15
2022-09-07T00:25:39.096Z,4.00
2022-09-07T00:28:08.065Z,4.68
2022-09-07T00:30:40.445Z,4.85
2022-09-07T00:33:07.001Z,4.47
2022-09-07T00:35:33.560Z,3.60
2022-09-07T00:38:00.276Z,4.70
2022-09-07T00:40:26.891Z,5.15
2022-09-07T00:42:53.464Z,5.57
2022-09-07T00:45:21.257Z,5.15
2022-09-07T00:47:54.528Z,5.70
2022-09-07T00:50:23.971Z,6.13
2022-09-07T00:52:59.954Z,5.30
2022-09-07T00:55:27.684Z,5.70
2022-09-07T00:57:56.377Z,6.15
2022-09-07T01:00:23.516Z,5.90
2022-09-07T01:02:54.178Z,5.40
2022-09-07T01:05:33.246Z,5.15
2022-09-07T01:07:59.831Z,6.32
2022-09-07T01:10:30.679Z,6.03
2022-09-07T01:12:58.265Z,5.05
2022-09-07T01:15:48.577Z,5.43
2022-09-07T01:18:33.280Z,5.38
2022-09-07T01:21:11.900Z,5.55
2022-09-07T01:24:09.142Z,5.32
2022-09-07T01:26:48.130Z,4.82
2022-09-07T01:29:39.884Z,5.03
2022-09-07T01:32:21.441Z,4.43
2022-09-07T01:34:53.289Z,4.88
2022-09-07T01:37:38.282Z,4.65
2022-09-07T01:40:15.523Z,4.35
2022-09-07T01:42:52.860Z,5.10
2022-09-07T01:45:25.593Z,5.13
2022-09-07T01:47:56.504Z,4.60
2022-09-07T01:50:32.084Z,5.22
2022-09-07T01:53:07.555Z,5.18
2022-09-07T01:55:45.611Z,4.93
2022-09-07T01:58:24.275Z,5.28
2022-09-07T02:01:07.768Z,4.65
2022-09-07T02:03:49.603Z,5.82
2022-09-07T02:06:51.937Z,4.60
2022-09-07T02:11:50.405Z,5.20
2022-09-07T02:14:16.944Z,5.93
2022-09-07T02:17:00.312Z,5.25
2022-09-07T02:19:33.432Z,6.28
2022-09-07T02:22:05.455Z,5.80
2022-09-07T02:29:34.511Z,6.28
2022-09-07T02:32:01.541Z,5.32
2022-09-07T02:34:28.144Z,6.32
2022-09-07T02:36:55.729Z,5.90
2022-09-07T02:39:22.343Z,5.82
2022-09-07T02:41:48.882Z,6.20
2022-09-07T02:44:25.218Z,6.95
2022-09-07T02:47:20.418Z,6.28
2022-09-07T02:50:27.576Z,5.95
2022-09-07T02:52:56.827Z,6.90
2022-09-07T02:55:47.713Z,7.28
2022-09-07T02:58:39.890Z,6.78
2022-09-07T03:01:06.579Z,7.00
2022-09-07T03:03:54.807Z,7.55
2022-09-07T03:06:39.595Z,6.75
2022-09-07T03:09:13.150Z,6.95
2022-09-07T03:11:39.726Z,6.60
2022-09-07T03:14:22.611Z,6.47
2022-09-07T03:16:51.314Z,6.88
2022-09-07T03:19:18.463Z,6.70
2022-09-07T03:21:45.604Z,6.05
2022-09-07T03:24:12.185Z,6.20
2022-09-07T03:26:43.456Z,6.70
2022-09-07T03:29:10.077Z,6.50
2022-09-07T03:31:36.868Z,6.55
2022-09-07T03:34:04.030Z,6.28
2022-09-07T03:36:31.655Z,5.75
2022-09-07T03:39:01.420Z,5.60
2022-09-07T03:41:28.489Z,5.82
2022-09-07T03:43:55.211Z,6.30
2022-09-07T03:46:21.908Z,6.50
2022-09-07T03:48:50.171Z,7.60
2022-09-07T03:51:18.166Z,7.03
2022-09-07T03:53:46.362Z,4.90
2022-09-07T03:56:18.446Z,4.88
2022-09-07T04:01:15.999Z,5.00
2022-09-07T04:03:43.824Z,5.70
2022-09-07T04:06:11.073Z,4.93
2022-09-07T04:08:38.543Z,4.45
2022-09-07T04:11:06.966Z,4.28
2022-09-07T04:13:35.936Z,4.03
2022-09-07T04:16:19.833Z,4.65
2022-09-07T04:18:47.001Z,3.90
2022-09-07T04:21:13.769Z,3.90
2022-09-07T04:23:41.936Z,3.42
2022-09-07T04:26:36.043Z,3.17
2022-09-07T04:29:04.223Z,3.90
2022-09-07T04:31:34.275Z,3.55
2022-09-07T04:34:01.301Z,3.42
2022-09-07T04:36:28.141Z,3.67
2022-09-07T04:38:57.474Z,3.72
2022-09-07T04:41:24.251Z,3.38
2022-09-07T04:43:54.531Z,3.58
2022-09-07T04:46:30.099Z,2.90
2022-09-07T04:48:59.221Z,3.20
2022-09-07T04:51:28.993Z,2.20
2022-09-07T04:53:57.486Z,2.28
2022-09-07T04:56:24.236Z,2.30
2022-09-07T04:58:51.498Z,2.38
2022-09-07T05:01:20.973Z,2.40
2022-09-07T05:03:48.098Z,2.17
2022-09-07T05:06:16.653Z,2.80
2022-09-07T05:08:45.839Z,2.45
2022-09-07T05:11:14.030Z,2.35
2022-09-07T05:13:40.938Z,2.10
2022-09-07T05:16:18.859Z,2.72
2022-09-07T05:18:50.048Z,2.00
2022-09-07T05:21:19.310Z,2.10
2022-09-07T05:23:49.209Z,2.40
2022-09-07T05:26:15.779Z,1.92
2022-09-07T05:28:42.455Z,2.38
2022-09-07T05:31:18.519Z,2.33
2022-09-07T05:36:33.568Z,2.70
2022-09-07T05:39:00.187Z,2.53
2022-09-07T05:41:27.403Z,3.03
2022-09-07T05:46:41.599Z,2.95
2022-09-07T05:49:08.397Z,2.80
2022-09-07T05:51:37.034Z,3.50
2022-09-07T05:54:04.111Z,3.30
2022-09-07T05:56:33.339Z,3.40
2022-09-07T05:58:59.879Z,3.35
2022-09-07T06:01:26.476Z,2.50
2022-09-07T06:03:53.088Z,3.50
2022-09-07T06:06:19.708Z,2.95
2022-09-07T06:08:49.259Z,3.67
2022-09-07T06:11:18.848Z,3.00
2022-09-07T06:13:45.505Z,2.75
2022-09-07T06:16:14.077Z,2.97
2022-09-07T06:18:43.417Z,3.53
2022-09-07T06:21:18.624Z,4.13
2022-09-07T06:23:46.235Z,4.57
2022-09-07T06:26:14.042Z,3.28
2022-09-07T06:28:49.165Z,4.32
2022-09-07T06:31:19.470Z,4.70
2022-09-07T06:33:47.848Z,3.42
2022-09-07T06:36:17.296Z,3.97
2022-09-07T06:38:44.551Z,3.38
2022-09-07T06:44:02.700Z,3.95
2022-09-07T06:49:15.981Z,4.40
2022-09-07T06:51:42.578Z,5.68
2022-09-07T06:56:56.434Z,5.78
2022-09-07T06:59:22.971Z,6.00
2022-09-07T07:01:49.626Z,4.22
2022-09-07T07:04:16.296Z,6.60
2022-09-07T07:06:42.857Z,6.80
2022-09-07T07:09:13.753Z,6.20
2022-09-07T07:11:40.398Z,4.57
2022-09-07T07:14:07.065Z,6.13
2022-09-07T07:16:33.696Z,7.05
2022-09-07T07:19:00.319Z,5.95
2022-09-07T07:21:28.933Z,6.93
2022-09-07T07:24:05.015Z,7.25
2022-09-07T07:26:34.725Z,7.00
2022-09-07T07:29:02.868Z,7.07
2022-09-07T07:31:32.648Z,6.78
2022-09-07T07:33:59.423Z,6.78
2022-09-07T07:36:27.301Z,6.70
2022-09-07T07:44:18.413Z,7.05
2022-09-07T07:46:50.660Z,5.60
2022-09-07T07:49:17.632Z,5.93
2022-09-07T07:54:34.026Z,5.55
2022-09-07T07:57:00.565Z,4.97
2022-09-07T07:59:27.085Z,4.28
2022-09-07T08:01:53.890Z,4.20
2022-09-07T08:04:20.544Z,5.00
2022-09-07T08:06:47.085Z,4.88
2022-09-07T08:09:13.624Z,5.13
2022-09-07T08:11:40.612Z,4.75
2022-09-07T08:14:08.627Z,4.22
2022-09-07T08:16:36.411Z,4.97
2022-09-07T08:19:03.507Z,4.68
2022-09-07T08:21:30.073Z,3.90
2022-09-07T08:23:56.944Z,4.60
2022-09-07T08:26:23.500Z,4.20
2022-09-07T08:28:50.047Z,3.10
2022-09-07T08:31:17.712Z,4.55
2022-09-07T08:33:45.250Z,3.20
2022-09-07T08:36:13.996Z,4.00
2022-09-07T08:38:41.079Z,4.03
2022-09-07T08:41:33.542Z,4.60
2022-09-07T08:44:03.836Z,3.53
2022-09-07T08:46:38.690Z,3.33
2022-09-07T08:49:10.705Z,2.92
2022-09-07T08:54:12.523Z,3.03
2022-09-07T08:57:20.511Z,3.63
2022-09-07T08:59:46.736Z,3.65
2022-09-07T09:05:20.552Z,3.05
2022-09-07T09:06:11.241Z,3.08
2022-09-07T09:08:05.916Z,2.70
2022-09-07T09:11:00.427Z,3.58
2022-09-07T09:13:53.100Z,3.45
2022-09-07T09:16:30.677Z,3.25
2022-09-07T09:19:19.313Z,2.95
2022-09-07T09:21:46.061Z,2.80
2022-09-07T09:24:17.223Z,2.92
2022-09-07T09:29:22.770Z,2.80
2022-09-07T09:31:49.841Z,2.60
2022-09-07T09:34:23.827Z,2.70
2022-09-07T09:36:55.825Z,2.65
2022-09-07T09:39:36.988Z,2.58
2022-09-07T09:42:23.792Z,2.60
2022-09-07T09:44:50.875Z,2.05
2022-09-07T09:47:32.738Z,1.83
2022-09-07T09:50:04.999Z,2.53
2022-09-07T09:52:45.020Z,2.20
2022-09-07T09:55:36.142Z,1.88
2022-09-07T10:01:36.068Z,2.17
2022-09-07T10:04:38.450Z,1.98
2022-09-07T10:07:25.917Z,2.35
2022-09-07T10:09:54.468Z,2.55
2022-09-07T10:12:32.238Z,2.13
2022-09-07T10:15:01.327Z,1.67
2022-09-07T10:17:43.569Z,2.17
2022-09-07T10:20:15.458Z,1.80
2022-09-07T10:25:41.972Z,1.35
2022-09-07T10:28:11.611Z,1.75
2022-09-07T10:30:45.810Z,1.40
2022-09-07T10:33:28.740Z,1.48
2022-09-07T10:35:58.528Z,1.75
2022-09-07T10:38:29.508Z,1.50
2022-09-07T10:41:09.701Z,1.10
2022-09-07T10:43:47.294Z,1.60
2022-09-07T10:49:21.559Z,1.73
2022-09-07T10:52:21.344Z,1.38
2022-09-07T10:55:10.177Z,1.45
2022-09-07T10:57:55.151Z,1.58
2022-09-07T11:00:22.817Z,1.63
2022-09-07T11:03:28.942Z,1.50
2022-09-07T11:06:01.429Z,1.88
2022-09-07T11:12:08.073Z,1.45
2022-09-07T11:14:42.293Z,1.63
2022-09-07T11:17:17.105Z,1.88
2022-09-07T11:19:54.778Z,1.30
2022-09-07T11:22:28.936Z,2.25
2022-09-07T11:25:32.804Z,2.10
2022-09-07T11:28:13.022Z,1.10
2022-09-07T11:30:47.705Z,1.25
2022-09-07T11:33:24.328Z,1.30
2022-09-07T11:35:58.655Z,1.30
2022-09-07T11:38:33.797Z,1.55
2022-09-07T11:41:12.123Z,1.63
2022-09-07T11:43:45.501Z,2.10
2022-09-07T11:46:22.048Z,1.75
2022-09-07T11:48:55.765Z,1.35
2022-09-07T11:51:47.299Z,1.45
2022-09-07T11:54:29.234Z,1.08
2022-09-07T12:00:19.444Z,1.90
2022-09-07T12:03:14.057Z,1.55
2022-09-07T12:05:49.672Z,1.27
2022-09-07T12:09:01.114Z,1.33
2022-09-07T12:11:49.243Z,1.80
2022-09-07T12:14:21.916Z,1.60
2022-09-07T12:16:51.421Z,1.60
2022-09-07T12:19:28.090Z,1.80
2022-09-07T12:21:57.933Z,1.65
2022-09-07T12:24:33.757Z,1.33
2022-09-07T12:27:01.411Z,1.52
2022-09-07T12:29:29.805Z,1.20
2022-09-07T12:32:07.394Z,1.38
2022-09-07T12:34:52.263Z,1.45
2022-09-07T12:37:40.469Z,1.77
2022-09-07T12:40:34.756Z,1.30
2022-09-07T12:43:13.644Z,1.30
2022-09-07T12:45:50.785Z,2.30
2022-09-07T12:48:17.321Z,1.83
2022-09-07T12:50:59.019Z,1.42
2022-09-07T12:53:44.101Z,1.33
2022-09-07T12:56:20.164Z,1.02
2022-09-07T12:58:52.540Z,1.45
2022-09-07T13:01:41.136Z,1.60
2022-09-07T13:04:37.551Z,1.40
2022-09-07T13:07:30.778Z,1.48
2022-09-07T13:09:59.830Z,1.50
2022-09-07T13:12:54.716Z,1.58
2022-09-07T13:15:46.640Z,2.35
2022-09-07T13:18:28.593Z,1.17
2022-09-07T13:23:41.000Z,1.20
2022-09-07T13:26:11.021Z,0.85
2022-09-07T13:28:40.669Z,1.15
2022-09-07T13:31:25.001Z,1.20
2022-09-07T13:33:53.097Z,1.17
2022-09-07T13:36:45.586Z,1.00
2022-09-07T13:39:15.805Z,1.20
2022-09-07T13:41:52.323Z,1.10
2022-09-07T13:44:26.378Z,1.30
2022-09-07T13:46:58.258Z,1.02
2022-09-07T13:49:43.389Z,1.23
2022-09-07T13:52:23.183Z,1.30
2022-09-07T13:55:20.738Z,1.17
2022-09-07T13:58:01.832Z,1.48
2022-09-07T14:00:28.817Z,1.45
2022-09-07T14:03:05.401Z,1.38
2022-09-07T14:05:32.091Z,1.40
2022-09-07T14:07:58.700Z,1.60
2022-09-07T14:10:26.606Z,1.48
2022-09-07T14:13:05.242Z,1.20
2022-09-07T14:15:42.515Z,1.20
2022-09-07T14:18:31.352Z,1.25
2022-09-07T14:20:58.779Z,1.25
2022-09-07T14:23:29.979Z,1.50
2022-09-07T14:26:17.723Z,1.20
2022-09-07T14:28:47.659Z,1.45
2022-09-07T14:31:17.315Z,1.33
2022-09-07T14:34:00.856Z,1.10
2022-09-07T14:36:44.820Z,1.27
2022-09-07T14:39:15.581Z,1.35
2022-09-07T14:41:43.281Z,1.20
2022-09-07T14:44:34.080Z,1.40
2022-09-07T14:47:19.589Z,1.70
2022-09-07T14:49:52.564Z,1.50
2022-09-07T14:52:23.586Z,1.30
2022-09-07T14:54:53.817Z,1.40
2022-09-07T14:57:30.667Z,1.55
2022-09-07T14:59:58.925Z,1.30
2022-09-07T15:02:35.641Z,1.58
2022-09-07T15:05:18.624Z,1.30
2022-09-07T15:07:52.821Z,1.63
2022-09-07T15:10:23.232Z,1.60
2022-09-07T15:12:55.148Z,1.52
2022-09-07T15:17:59.036Z,1.48
2022-09-07T15:20:35.532Z,1.52
2022-09-07T15:23:16.256Z,1.40
2022-09-07T15:25:50.328Z,1.27
2022-09-07T15:34:10.665Z,1.33
2022-09-07T15:36:40.552Z,1.17
2022-09-07T15:39:14.667Z,1.50
2022-09-07T15:41:41.169Z,1.70
2022-09-07T15:44:09.099Z,1.60
2022-09-07T15:46:37.148Z,1.55
2022-09-07T15:49:04.694Z,1.27
2022-09-07T15:54:20.616Z,1.60
2022-09-07T15:59:34.926Z,1.90
2022-09-07T16:02:01.993Z,1.48
2022-09-07T16:04:29.415Z,1.52
2022-09-07T16:06:56.054Z,1.38
2022-09-07T16:09:22.713Z,1.35
2022-09-07T16:11:50.831Z,1.40
2022-09-07T16:14:17.703Z,1.58
2022-09-07T16:19:34.740Z,1.20
2022-09-07T16:22:01.900Z,1.23
2022-09-07T16:24:28.676Z,1.40
2022-09-07T16:26:55.270Z,1.13
2022-09-07T16:29:21.812Z,1.33
2022-09-07T16:34:34.943Z,1.30
2022-09-07T16:37:01.822Z,1.40
2022-09-07T16:39:32.031Z,0.93
2022-09-07T16:42:00.091Z,1.35
2022-09-07T16:44:26.774Z,1.23
2022-09-07T16:46:53.303Z,0.70
2022-09-07T16:49:19.891Z,1.02
2022-09-07T16:51:46.408Z,0.98
2022-09-07T16:54:13.992Z,0.90
2022-09-07T16:56:40.728Z,1.25
2022-09-07T16:59:11.432Z,1.00
2022-09-07T17:01:38.488Z,1.10
2022-09-07T17:04:10.302Z,1.00
2022-09-07T17:06:37.986Z,0.90
2022-09-07T17:09:04.723Z,0.95
2022-09-07T17:11:34.368Z,1.15
2022-09-07T17:14:01.453Z,1.00
2022-09-07T17:16:30.922Z,0.82
2022-09-07T17:21:46.567Z,1.17
2022-09-07T17:24:13.292Z,1.08
2022-09-07T17:26:42.235Z,1.00
2022-09-07T17:29:09.624Z,0.80
2022-09-07T17:34:24.356Z,1.45
2022-09-07T17:36:51.594Z,0.82
2022-09-07T17:39:19.312Z,0.95
2022-09-07T17:41:52.627Z,1.08
2022-09-07T17:44:19.592Z,1.13
2022-09-07T17:46:46.170Z,1.40
2022-09-07T17:49:14.531Z,1.50
2022-09-07T17:51:41.523Z,1.38
2022-09-07T17:54:13.256Z,1.00
2022-09-07T17:56:41.320Z,1.15
2022-09-07T18:01:55.927Z,1.00
2022-09-07T18:04:23.503Z,1.00
2022-09-07T18:06:50.515Z,1.30
2022-09-07T18:09:17.591Z,1.17
2022-09-07T18:11:45.863Z,1.10
2022-09-07T18:14:14.925Z,1.27
2022-09-07T18:16:43.694Z,0.98
2022-09-07T18:19:11.410Z,0.98
2022-09-07T18:21:40.807Z,1.30
2022-09-07T18:24:17.405Z,1.30
2022-09-07T18:26:44.717Z,1.88
2022-09-07T18:29:28.142Z,1.40
2022-09-07T18:31:55.948Z,1.45
2022-09-07T18:34:23.195Z,1.05
2022-09-07T18:36:50.215Z,1.20
2022-09-07T18:39:16.880Z,1.20
2022-09-07T18:41:43.406Z,1.02
2022-09-07T18:46:56.599Z,0.98
2022-09-07T18:49:23.531Z,1.13
2022-09-07T18:54:38.673Z,0.80
2022-09-07T18:57:06.723Z,1.00
2022-09-07T18:59:33.447Z,1.27
2022-09-07T19:02:03.910Z,1.35
2022-09-07T19:07:20.607Z,2.35
2022-09-07T19:09:48.369Z,2.60
2022-09-07T19:12:15.351Z,2.30
2022-09-07T19:14:42.348Z,2.13
2022-09-07T19:17:11.058Z,1.90
2022-09-07T19:19:38.881Z,1.98
2022-09-07T19:22:06.080Z,2.40
2022-09-07T19:24:33.288Z,2.10
2022-09-07T19:27:01.133Z,2.10
2022-09-07T19:29:28.416Z,1.92
2022-09-07T19:32:04.445Z,1.52
2022-09-07T19:34:39.034Z,1.65
2022-09-07T19:37:07.189Z,1.95
2022-09-07T19:39:34.156Z,1.58
2022-09-07T19:42:02.158Z,1.30
2022-09-07T19:44:28.699Z,1.50
2022-09-07T19:46:55.612Z,1.65
2022-09-07T19:49:22.586Z,1.30
2022-09-07T19:51:51.305Z,1.05
2022-09-07T19:54:17.866Z,1.65
2022-09-07T19:56:44.789Z,2.80
2022-09-07T19:59:12.455Z,4.07
2022-09-07T20:01:40.746Z,3.70
2022-09-07T20:04:13.786Z,3.05
2022-09-07T20:06:42.832Z,1.83
2022-09-07T20:09:09.469Z,1.30
2022-09-07T20:11:36.673Z,2.10
2022-09-07T20:14:03.759Z,1.45
2022-09-07T20:16:31.221Z,1.88
2022-09-07T20:18:59.584Z,1.42
2022-09-07T20:21:26.969Z,1.33
2022-09-07T20:23:53.651Z,1.38
2022-09-07T20:26:21.718Z,1.67
2022-09-07T20:29:10.661Z,1.80
2022-09-07T20:31:40.814Z,1.60
2022-09-07T20:34:08.869Z,1.50
2022-09-07T20:36:35.631Z,1.70
2022-09-07T20:39:02.190Z,1.50
2022-09-07T20:41:31.414Z,1.30
2022-09-07T20:44:00.053Z,1.35
2022-09-07T20:46:28.412Z,1.48
2022-09-07T20:48:55.194Z,1.23
2022-09-07T20:51:21.930Z,1.42
2022-09-07T20:53:49.776Z,1.60
2022-09-07T20:56:19.354Z,1.48
2022-09-07T20:58:47.557Z,1.50
2022-09-07T21:01:17.819Z,1.40
2022-09-07T21:03:49.638Z,1.38
2022-09-07T21:06:17.556Z,1.30
2022-09-07T21:08:45.393Z,1.55
2022-09-07T21:11:18.258Z,1.65
2022-09-07T21:13:44.947Z,1.98
2022-09-07T21:16:14.002Z,1.63
2022-09-07T21:18:41.821Z,1.27
2022-09-07T21:21:24.450Z,1.40
2022-09-07T21:23:59.505Z,1.30
2022-09-07T21:26:27.970Z,1.40
2022-09-07T21:28:59.227Z,1.45
2022-09-07T21:31:26.555Z,1.40
2022-09-07T21:33:55.543Z,1.85
2022-09-07T21:36:22.404Z,1.30
2022-09-07T21:38:50.025Z,1.65
2022-09-07T21:41:19.215Z,1.55
2022-09-07T21:43:45.781Z,1.35
2022-09-07T21:46:17.212Z,1.50
2022-09-07T21:48:45.509Z,1.60
2022-09-07T21:51:13.637Z,1.65
2022-09-07T21:53:40.776Z,1.67
2022-09-07T21:56:10.316Z,1.45
2022-09-07T21:58:36.833Z,1.48
2022-09-07T22:01:12.254Z,1.60
2022-09-07T22:03:40.503Z,1.60
2022-09-07T22:06:08.472Z,1.58
2022-09-07T22:08:36.500Z,1.80
2022-09-07T22:11:14.594Z,1.60
2022-09-07T22:13:41.582Z,1.58
2022-09-07T22:16:08.754Z,1.80
2022-09-07T22:18:37.924Z,1.40
2022-09-07T22:21:04.509Z,1.55
2022-09-07T22:23:34.656Z,1.40
2022-09-07T22:26:01.558Z,1.73
2022-09-07T22:28:31.622Z,1.60
2022-09-07T22:31:10.379Z,1.50
2022-09-07T22:33:37.380Z,1.70
2022-09-07T22:36:15.441Z,1.77
2022-09-07T22:38:43.811Z,1.58
2022-09-07T22:41:15.418Z,1.90
2022-09-07T22:49:16.172Z,2.00
2022-09-07T22:54:27.703Z,1.70
2022-09-07T22:56:54.303Z,1.60
2022-09-07T22:59:20.846Z,1.70
2022-09-07T23:01:47.413Z,2.00
2022-09-07T23:04:14.089Z,2.08
2022-09-07T23:06:42.624Z,2.10
2022-09-07T23:09:11.970Z,1.80
2022-09-07T23:11:39.181Z,1.63
2022-09-07T23:14:11.108Z,2.08
2022-09-07T23:16:37.757Z,1.90
2022-09-07T23:19:05.015Z,2.00
2022-09-07T23:21:31.660Z,2.50
2022-09-07T23:24:00.975Z,2.00
2022-09-07T23:26:30.448Z,2.28
2022-09-07T23:29:00.017Z,2.30
2022-09-07T23:31:28.197Z,2.03
2022-09-07T23:33:57.409Z,2.35
2022-09-07T23:36:24.886Z,2.10
2022-09-07T23:38:54.435Z,2.00
2022-09-07T23:41:21.181Z,2.33
2022-09-07T23:43:48.459Z,1.80
2022-09-07T23:46:16.033Z,2.15
2022-09-07T23:48:44.161Z,1.95
2022-09-07T23:51:11.544Z,2.22
2022-09-07T23:53:38.112Z,1.90
2022-09-07T23:56:05.301Z,2.85
2022-09-07T23:58:32.073Z,2.13
